Latest Weather Observations for Wyndham Airport

IDD60801

Issued at 2:31 pm CST Monday 25 May 2015 (issued every 30 minutes, with the page automatically refreshed every 10 minutes)

About weather observations | Map of weather stations | Latest weather observations for NT | Other Formats
Station Details ID: 001006 Name: WYNDHAM AERO Lat: -15.51 Lon: 128.15 Height: 3.8 m
Data from the previous 72 hours. | See also: Recent months for locations in Northern Territory
Date/Time
CST
Temp
°C
App
Temp
°C
Dew
Point
Rel
Hum
%
Delta-T
°C
Wind Press
QNH
hPa
Press
MSL
hPa
Rain
since 9 am
mm
Dir
 
Spd
km/h
Gust
km/h
Spd
kts
Gust
kts
25/02:30pm 32.5 28.0 -0.5 12 15.9 SE 13 19 7 10 1014.3 1014.3 0.0
25/02:00pm 32.4 27.5 -0.6 12 15.8 ESE 15 26 8 14 1014.9 1014.9 0.0
25/01:30pm 31.7 26.3 -1.2 12 15.6 ESE 17 26 9 14 1015.5 1015.5 0.0
25/01:00pm 32.0 26.4 0.2 13 15.4 ESE 19 32 10 17 1016.1 1016.1 0.0
25/12:30pm 31.3 25.5 -0.4 13 15.1 E 20 30 11 16 1016.7 1016.7 0.0
25/12:00pm 30.5 23.8 -1.0 13 14.8 E 24 35 13 19 1017.2 1017.2 0.0
25/11:30am 30.4 24.5 -1.1 13 14.8 ESE 20 30 11 16 1017.9 1017.9 0.0
25/11:00am 29.6 23.2 -1.7 13 14.5 E 22 33 12 18 1018.0 1018.0 0.0
25/10:30am 29.7 23.5 -0.6 14 14.3 ESE 22 30 12 16 1018.2 1018.2 0.0
25/10:00am 27.9 22.8 0.6 17 12.9 SE 17 26 9 14 1018.3 1018.3 0.0
25/09:30am 26.8 22.2 1.3 19 12.1 SE 15 19 8 10 1018.3 1018.3 0.0
25/09:00am 25.3 21.6 2.1 22 11.1 SE 11 15 6 8 1018.2 1018.2 0.0
25/08:30am 22.1 20.7 3.3 29 9.0 CALM 0 0 0 0 1018.0 1018.0 0.0
25/08:00am 19.2 16.2 2.1 32 7.8 E 7 9 4 5 1017.9 1017.9 0.0
25/07:30am 18.9 15.6 2.3 33 7.6 E 9 9 5 5 1017.3 1017.3 0.0
25/07:00am 17.3 13.5 1.7 35 7.0 E 11 13 6 7 1016.9 1016.9 0.0
25/06:30am 18.1 14.8 2.4 35 7.1 E 9 11 5 6 1016.6 1016.6 0.0
25/06:00am 15.7 12.4 2.2 40 6.0 E 9 11 5 6 1016.2 1016.2 0.0
25/05:30am 16.0 12.6 2.1 39 6.2 ESE 9 9 5 5 1016.0 1016.0 0.0
25/05:00am 16.4 12.9 1.3 36 6.6 ENE 9 11 5 6 1015.9 1015.9 0.0
25/04:30am 18.5 15.1 1.9 33 7.5 ENE 9 11 5 6 1015.8 1015.8 0.0
25/04:00am 16.0 13.1 2.8 41 6.0 ESE 7 9 4 5 1015.8 1015.8 0.0
25/03:30am 16.0 12.5 1.3 37 6.4 ENE 9 9 5 5 1015.9 1015.9 0.0
25/03:00am 17.2 13.8 2.0 36 6.8 ENE 9 11 5 6 1016.1 1016.1 0.0
25/02:30am 18.7 15.0 2.1 33 7.6 ESE 11 13 6 7 1016.2 1016.2 0.0
25/02:00am 18.0 14.2 1.9 34 7.3 SE 11 13 6 7 1016.3 1016.3 0.0
25/01:30am 19.0 14.9 2.0 32 7.7 ESE 13 15 7 8 1016.1 1016.1 0.0
25/01:00am 20.1 16.3 2.0 30 8.3 ESE 11 13 6 7 1016.2 1016.2 0.0
25/12:30am 19.0 17.4 2.4 33 7.6 CALM 0 0 0 0 1016.2 1016.2 0.0
25/12:00am 20.4 18.7 1.8 29 8.5 CALM 0 0 0 0 1016.2 1016.2 0.0
 
Date/Time
CST
Temp
°C
App
Temp
°C
Dew
Point
Rel
Hum
%
Delta-T
°C
Wind Press
QNH
hPa
Press
MSL
hPa
Rain
since 9 am
mm
Dir
 
Spd
km/h
Gust
km/h
Spd
kts
Gust
kts
24/11:30pm 21.7 20.0 1.9 27 9.2 CALM 0 7 0 4 1016.4 1016.4 0.0
24/11:00pm 22.0 20.4 2.2 27 9.3 CALM 0 0 0 0 1016.6 1016.6 0.0
24/10:30pm 22.8 19.3 1.2 24 10.0 ENE 9 11 5 6 1016.7 1016.7 0.0
24/10:00pm 24.3 20.4 1.2 22 10.8 E 11 13 6 7 1016.5 1016.5 0.0
24/09:30pm 24.1 19.9 1.7 23 10.5 E 13 15 7 8 1016.2 1016.2 0.0
24/09:00pm 24.6 21.2 2.1 23 10.7 E 9 11 5 6 1015.8 1015.8 0.0
24/08:30pm 24.6 21.0 2.7 24 10.5 ESE 11 11 6 6 1015.4 1015.4 0.0
24/08:00pm 25.0 20.8 1.8 22 11.0 ESE 13 13 7 7 1015.1 1015.1 0.0
24/07:30pm 25.7 22.3 1.8 21 11.4 SE 9 13 5 7 1014.6 1014.6 0.0
24/07:00pm 27.5 23.6 1.1 18 12.6 E 11 15 6 8 1014.2 1014.2 0.0
24/06:30pm 29.0 25.0 0.7 16 13.6 E 11 15 6 8 1013.9 1013.9 0.0
24/06:00pm 31.2 27.1 -0.5 13 15.1 SE 11 15 6 8 1013.6 1013.6 0.0
24/05:30pm 32.0 27.8 -0.9 12 15.7 ESE 11 17 6 9 1013.3 1013.3 0.0
24/05:00pm 32.1 27.9 -0.9 12 15.7 SSE 11 17 6 9 1013.3 1013.3 0.0
24/04:30pm 32.3 28.1 -0.7 12 15.8 ESE 11 17 6 9 1013.2 1013.2 0.0
24/04:00pm 32.2 28.8 -0.8 12 15.8 E 7 17 4 9 1013.1 1013.1 0.0
24/03:30pm 32.0 28.0 -2.1 11 15.9 SE 9 15 5 8 1013.4 1013.4 0.0
24/03:00pm 32.0 27.6 -2.1 11 15.9 ESE 11 19 6 10 1013.6 1013.6 0.0
24/02:30pm 31.6 26.2 -1.2 12 15.5 SE 17 24 9 13 1013.9 1013.9 0.0
24/02:00pm 31.5 26.5 -1.3 12 15.5 ESE 15 26 8 14 1014.4 1014.4 0.0
24/01:30pm 30.6 25.6 -0.9 13 14.9 SSE 15 24 8 13 1015.0 1015.0 0.0
24/01:00pm 30.2 24.8 -1.2 13 14.7 ESE 17 28 9 15 1015.4 1015.4 0.0
24/12:30pm 30.2 24.4 -1.2 13 14.7 E 19 28 10 15 1015.8 1015.8 0.0
24/12:00pm 29.1 23.4 -1.1 14 14.0 ESE 19 28 10 15 1016.5 1016.5 0.0
24/11:30am 28.9 22.7 -0.3 15 13.7 ESE 22 32 12 17 1016.8 1016.8 0.0
24/11:00am 28.3 22.0 -0.8 15 13.5 ESE 22 30 12 16 1017.2 1017.2 0.0
24/10:30am 27.4 20.4 -0.6 16 12.9 ESE 26 35 14 19 1017.3 1017.3 0.0
24/10:00am 26.8 19.7 -1.1 16 12.8 E 26 39 14 21 1017.7 1017.7 0.0
24/09:30am 26.3 20.0 -0.7 17 12.4 ESE 22 32 12 17 1017.6 1017.6 0.0
24/09:00am 24.4 20.5 1.3 22 10.8 ESE 11 13 6 7 1017.5 1017.5 0.0
24/08:30am 21.9 20.2 2.1 27 9.2 CALM 0 0 0 0 1017.5 1017.5 0.0
24/08:00am 19.8 17.0 3.1 33 7.8 E 7 9 4 5 1017.3 1017.3 0.0
24/07:30am 17.6 13.5 2.0 35 7.0 SE 13 15 7 8 1016.8 1016.8 0.0
24/07:00am 17.2 13.4 2.0 36 6.8 SSE 11 11 6 6 1016.4 1016.4 0.0
24/06:30am 17.0 14.2 3.3 40 6.3 SE 7 9 4 5 1016.0 1016.0 0.0
24/06:00am 18.0 15.7 4.6 41 6.4 ESE 6 6 3 3 1015.9 1015.9 0.0
24/05:30am 17.7 15.0 2.8 37 6.8 SE 6 7 3 4 1015.6 1015.6 0.0
24/05:00am 19.8 16.2 3.1 33 7.8 E 11 11 6 6 1015.3 1015.3 0.0
24/04:30am 19.5 16.4 3.6 35 7.5 E 9 11 5 6 1015.4 1015.4 0.0
24/04:00am 18.3 14.5 3.8 38 6.8 SE 13 13 7 7 1015.0 1015.0 0.0
24/03:30am 20.0 15.9 4.5 36 7.5 SE 15 17 8 9 1015.2 1015.2 0.0
24/03:00am 20.1 16.8 4.6 36 7.5 SE 11 13 6 7 1015.2 1015.2 0.0
24/02:30am 20.8 17.2 4.8 35 7.8 ESE 13 15 7 8 1015.3 1015.3 0.0
24/02:00am 23.0 18.6 5.0 31 9.0 E 17 19 9 10 1015.2 1015.2 0.0
24/01:30am 21.4 18.0 6.1 37 7.7 ESE 13 22 7 12 1015.1 1015.1 0.0
24/01:00am 19.5 16.4 5.6 40 6.8 SE 11 13 6 7 1015.3 1015.3 0.0
24/12:30am 21.6 19.5 5.9 36 7.9 E 6 9 3 5 1015.1 1015.1 0.0
24/12:00am 21.8 20.7 5.3 34 8.2 CALM 0 4 0 2 1015.2 1015.2 0.0
 
Date/Time
CST
Temp
°C
App
Temp
°C
Dew
Point
Rel
Hum
%
Delta-T
°C
Wind Press
QNH
hPa
Press
MSL
hPa
Rain
since 9 am
mm
Dir
 
Spd
km/h
Gust
km/h
Spd
kts
Gust
kts
23/11:30pm 23.8 21.7 5.7 31 9.2 E 6 7 3 4 1015.1 1015.1 0.0
23/11:00pm 24.1 21.8 5.9 31 9.3 E 7 7 4 4 1015.2 1015.2 0.0
23/10:30pm 24.0 21.3 5.4 30 9.4 E 9 9 5 5 1015.3 1015.3 0.0
23/10:00pm 24.3 21.6 5.6 30 9.5 E 9 11 5 6 1015.2 1015.2 0.0
23/09:30pm 25.3 21.9 6.0 29 9.9 E 13 15 7 8 1015.2 1015.2 0.0
23/09:00pm 25.3 22.4 6.5 30 9.8 E 11 13 6 7 1015.3 1015.3 0.0
23/08:30pm 25.9 23.0 6.5 29 10.1 E 11 11 6 6 1015.1 1015.1 0.0
23/08:00pm 25.4 22.5 6.6 30 9.8 ESE 11 13 6 7 1014.8 1014.8 0.0
23/07:30pm 26.3 23.7 6.3 28 10.4 ESE 9 13 5 7 1014.6 1014.6 0.0
23/07:00pm 27.9 24.2 6.1 25 11.4 ESE 15 19 8 10 1014.3 1014.3 0.0
23/06:30pm 29.3 25.5 6.0 23 12.3 ESE 15 19 8 10 1014.0 1014.0 0.0
23/06:00pm 31.0 27.3 6.1 21 13.3 SE 15 20 8 11 1013.7 1013.7 0.0
23/05:30pm 31.8 27.7 6.1 20 13.8 SE 17 20 9 11 1013.3 1013.3 0.0
23/05:00pm 32.1 28.3 5.6 19 14.1 SSE 15 24 8 13 1013.1 1013.1 0.0
23/04:30pm 32.8 28.9 5.4 18 14.6 ESE 15 22 8 12 1013.3 1013.3 0.0
23/04:00pm 32.7 30.5 6.1 19 14.3 ESE 7 19 4 10 1013.4 1013.4 0.0
23/03:30pm 32.7 29.5 6.8 20 14.1 E 13 22 7 12 1013.7 1013.7 0.0
23/03:00pm 32.6 29.4 6.7 20 14.1 SE 13 24 7 13 1014.0 1014.0 0.0
23/02:30pm 32.1 28.8 6.3 20 13.9 ESE 13 24 7 13 1014.4 1014.4 0.0
23/02:00pm 32.3 28.9 5.7 19 14.2 ESE 13 24 7 13 1014.9 1014.9 0.0
23/01:30pm 31.0 27.7 4.7 19 13.7 ESE 11 19 6 10 1015.4 1015.4 0.0
23/01:00pm 31.7 27.8 5.3 19 13.9 ESE 15 24 8 13 1016.1 1016.1 0.0
23/12:30pm 30.9 26.6 5.3 20 13.4 SE 17 22 9 12 1016.6 1016.6 0.0
23/12:00pm 30.9 27.0 5.3 20 13.5 ESE 15 24 8 13 1017.1 1017.1 0.0
23/11:30am 29.3 24.9 4.7 21 12.7 ESE 17 26 9 14 1017.4 1017.4 0.0
23/11:00am 28.8 23.9 5.0 22 12.3 ESE 20 32 11 17 1018.0 1018.0 0.0
23/10:30am 28.7 23.9 5.5 23 12.1 ESE 20 30 11 16 1018.3 1018.3 0.0
23/10:00am 28.1 23.5 5.6 24 11.7 ESE 19 30 10 16 1018.3 1018.3 0.0
23/09:30am 27.0 22.1 5.3 25 11.1 ESE 20 28 11 15 1018.4 1018.4 0.0
23/09:00am 26.1 21.5 5.7 27 10.5 SE 19 24 10 13 1018.1 1018.1 0.0
23/08:30am 24.7 22.3 6.9 32 9.3 ESE 9 11 5 6 1018.0 1018.0 0.0
23/08:00am 22.5 20.5 7.1 37 7.9 SE 7 9 4 5 1017.9 1017.9 0.0
23/07:30am 20.6 18.6 7.2 42 6.8 SE 7 9 4 5 1017.4 1017.4 0.0
23/07:00am 20.5 17.7 6.8 41 6.9 ESE 11 13 6 7 1017.0 1017.0 0.0
23/06:30am 21.4 18.7 7.3 40 7.2 ESE 11 15 6 8 1016.8 1016.8 0.0
23/06:00am 21.2 18.4 7.1 40 7.2 ESE 11 13 6 7 1016.6 1016.6 0.0
23/05:30am 21.3 18.6 7.2 40 7.2 ESE 11 15 6 8 1016.5 1016.5 0.0
23/05:00am 22.1 19.1 7.5 39 7.6 ESE 13 15 7 8 1016.4 1016.4 0.0
23/04:30am 23.4 20.4 7.9 37 8.1 SE 13 15 7 8 1016.5 1016.5 0.0
23/04:00am 24.6 20.9 8.1 35 8.8 E 17 20 9 11 1016.2 1016.2 0.0
23/03:30am 25.8 21.1 7.9 32 9.5 E 22 30 12 16 1015.9 1015.9 0.0
23/03:00am 26.2 21.2 8.2 32 9.7 E 24 30 13 16 1015.9 1015.9 0.0
23/02:30am 26.5 21.7 8.9 33 9.6 E 24 28 13 15 1015.8 1015.8 0.0
23/02:00am 26.7 22.3 9.1 33 9.6 E 22 28 12 15 1015.9 1015.9 0.0
23/01:30am 26.3 22.8 10.9 38 8.7 E 20 26 11 14 1015.9 1015.9 0.0
23/01:00am 23.6 22.0 14.9 58 5.2 E 17 17 9 9 1016.1 1016.1 0.0
23/12:30am 23.3 21.9 14.6 58 5.1 E 15 17 8 9 1016.1 1016.1 0.0
23/12:00am 22.8 21.5 13.6 56 5.3 ESE 13 15 7 8 1016.2 1016.2 0.0
 
Date/Time
CST
Temp
°C
App
Temp
°C
Dew
Point
Rel
Hum
%
Delta-T
°C
Wind Press
QNH
hPa
Press
MSL
hPa
Rain
since 9 am
mm
Dir
 
Spd
km/h
Gust
km/h
Spd
kts
Gust
kts
22/11:30pm 23.5 22.6 13.7 54 5.7 ESE 11 13 6 7 1016.2 1016.2 0.0
22/11:00pm 24.7 25.0 13.3 49 6.6 ESE 4 7 2 4 1016.1 1016.1 0.0
22/10:30pm 25.0 24.9 13.2 48 6.9 NE 6 7 3 4 1016.2 1016.2 0.0
22/10:00pm 26.2 27.1 14.0 47 7.2 S 2 6 1 3 1016.0 1016.0 0.0
22/09:30pm 26.5 26.0 12.5 41 8.1 ESE 7 11 4 6 1015.7 1015.7 0.0
22/09:00pm 27.0 26.1 12.6 41 8.4 ESE 9 11 5 6 1015.6 1015.6 0.0
22/08:30pm 27.5 27.0 11.9 38 9.0 SE 6 9 3 5 1015.2 1015.2 0.0
22/08:00pm 28.7 29.5 12.6 37 9.4 CALM 0 6 0 3 1014.8 1014.8 0.0
22/07:30pm 28.5 27.3 11.6 35 9.7 ESE 9 11 5 6 1014.5 1014.5 0.0
22/07:00pm 29.8 27.7 11.3 32 10.7 ESE 13 13 7 7 1014.4 1014.4 0.0
22/06:30pm 31.7 29.5 12.0 30 11.6 E 15 19 8 10 1013.9 1013.9 0.0
22/06:00pm 33.0 30.2 11.5 27 12.6 ESE 17 22 9 12 1013.7 1013.7 0.0
22/05:30pm 33.7 31.7 11.5 26 13.1 E 13 19 7 10 1013.5 1013.5 0.0
22/05:00pm 34.1 30.9 11.9 26 13.2 ESE 20 28 11 15 1013.3 1013.3 0.0
22/04:30pm 33.8 31.1 11.6 26 13.1 ESE 17 30 9 16 1013.3 1013.3 0.0

Other Formats:

Comma delimited format used in spreadsheet applications
http://www.bom.gov.au/fwo/IDD60801/IDD60801.95214.axf

JavaScript Object Notation format (JSON) in row-major order
http://www.bom.gov.au/fwo/IDD60801/IDD60801.95214.json